Pearces, Michigan
Current Conditions -  °F | °C
As of 4:35 AM on Friday 19 Dec 2014 (Local Time) from KOZW Reporting Station
Overcast Overcast  
Wind Chill: 25°   Ceiling: 800
Heat Index: 25°   Visibility: 10mi
Dew Point: 24°   Wind: 0mph
Humidity: 95%   Direction: NA
Pressure: 30.2"   Gusts: NA
Location:  42.7°N, 83.9305°W
Report Text: KOZW 190935Z AUTO 00000KT 10SM BKN008 BKN017 OVC022 M04/M04 A3020 RMK AO2 T10381045
Loading
Personal Weather Stations






























Interactive Weather Map New forecast layout! Learn more

10-Day Weather Forecast

Advertisements
Track Severe Weather on mobile